createdAt,value
2023-05-23T00:01:14.801Z,2.90
2023-05-23T00:03:44.445Z,2.73
2023-05-23T00:06:12.628Z,2.85
2023-05-23T00:08:40.744Z,2.97
2023-05-23T00:11:09.187Z,4.47
2023-05-23T00:13:37.263Z,3.15
2023-05-23T00:16:05.485Z,3.03
2023-05-23T00:18:33.581Z,3.37
2023-05-23T00:21:03.807Z,3.80
2023-05-23T00:23:34.204Z,3.75
2023-05-23T00:26:03.032Z,3.30
2023-05-23T00:28:31.272Z,3.50
2023-05-23T00:30:59.411Z,3.27
2023-05-23T00:33:27.675Z,3.63
2023-05-23T00:35:55.780Z,3.83
2023-05-23T00:38:25.238Z,3.40
2023-05-23T00:40:53.436Z,3.23
2023-05-23T00:43:22.881Z,3.55
2023-05-23T00:45:51.473Z,3.73
2023-05-23T00:48:19.631Z,3.50
2023-05-23T00:50:47.907Z,3.47
2023-05-23T00:53:17.388Z,3.17
2023-05-23T00:55:47.128Z,3.33
2023-05-23T00:58:16.053Z,3.70
2023-05-23T01:00:45.231Z,4.30
2023-05-23T01:03:18.219Z,3.57
2023-05-23T01:05:46.765Z,3.70
2023-05-23T01:08:15.904Z,3.80
2023-05-23T01:10:44.480Z,2.97
2023-05-23T01:13:23.015Z,3.50
2023-05-23T01:15:55.871Z,3.80
2023-05-23T01:18:31.147Z,3.50
2023-05-23T01:21:07.793Z,3.70
2023-05-23T01:24:05.150Z,3.93
2023-05-23T01:26:40.995Z,3.87
2023-05-23T01:29:15.698Z,3.77
2023-05-23T01:31:46.214Z,3.80
2023-05-23T01:34:17.140Z,4.17
2023-05-23T01:36:46.755Z,3.93
2023-05-23T01:39:15.090Z,4.60
2023-05-23T01:41:43.536Z,4.27
2023-05-23T01:44:13.125Z,4.17
2023-05-23T01:46:41.739Z,3.90
2023-05-23T01:49:12.925Z,4.30
2023-05-23T01:51:41.618Z,4.70
2023-05-23T01:54:10.152Z,4.33
2023-05-23T01:56:38.618Z,4.53
2023-05-23T01:59:06.789Z,4.53
2023-05-23T02:01:37.284Z,4.60
2023-05-23T02:04:05.971Z,4.93
2023-05-23T02:06:34.421Z,4.60
2023-05-23T02:09:02.764Z,4.73
2023-05-23T02:11:30.892Z,4.90
2023-05-23T02:13:58.957Z,4.40
2023-05-23T02:16:27.285Z,5.07
2023-05-23T02:18:57.198Z,4.70
2023-05-23T02:21:25.834Z,4.67
2023-05-23T02:23:54.100Z,4.73
2023-05-23T02:26:22.165Z,4.17
2023-05-23T02:28:50.278Z,4.87
2023-05-23T02:31:18.429Z,4.47
2023-05-23T02:33:46.528Z,4.60
2023-05-23T02:36:16.129Z,5.13
2023-05-23T02:38:44.309Z,5.00
2023-05-23T02:41:12.690Z,4.70
2023-05-23T02:43:40.822Z,5.17
2023-05-23T02:46:09.252Z,5.07
2023-05-23T02:48:37.289Z,5.10
2023-05-23T02:51:05.535Z,5.10
2023-05-23T02:53:35.139Z,5.20
2023-05-23T02:56:03.539Z,4.70
2023-05-23T02:58:32.040Z,5.60
2023-05-23T03:01:00.297Z,4.70
2023-05-23T03:03:29.014Z,5.17
2023-05-23T03:05:57.640Z,5.80
2023-05-23T03:08:26.072Z,5.77
2023-05-23T03:10:55.882Z,4.67
2023-05-23T03:13:24.028Z,5.30
2023-05-23T03:15:52.147Z,5.90
2023-05-23T03:18:20.607Z,5.50
2023-05-23T03:20:49.136Z,5.27
2023-05-23T03:23:17.294Z,5.10
2023-05-23T03:25:45.461Z,5.90
2023-05-23T03:28:15.440Z,6.37
2023-05-23T03:30:43.544Z,5.67
2023-05-23T03:33:12.294Z,6.23
2023-05-23T03:35:40.593Z,5.73
2023-05-23T03:38:09.074Z,5.23
2023-05-23T03:40:37.364Z,5.77
2023-05-23T03:43:06.240Z,5.60
2023-05-23T03:45:36.429Z,5.97
2023-05-23T03:48:04.829Z,6.10
2023-05-23T03:50:32.900Z,6.37
2023-05-23T03:53:01.006Z,5.83
2023-05-23T03:55:31.898Z,6.07
2023-05-23T03:58:00.438Z,6.23
2023-05-23T04:00:28.664Z,5.20
2023-05-23T04:02:58.367Z,6.03
2023-05-23T04:05:26.961Z,6.03
2023-05-23T04:07:55.016Z,5.23
2023-05-23T04:10:23.223Z,6.27
2023-05-23T04:12:51.664Z,6.67
2023-05-23T04:15:21.554Z,5.47
2023-05-23T04:17:51.847Z,5.97
2023-05-23T04:20:21.701Z,6.10
2023-05-23T04:22:50.185Z,5.87
2023-05-23T04:25:20.329Z,6.90
2023-05-23T04:27:48.443Z,5.50
2023-05-23T04:30:17.956Z,6.50
2023-05-23T04:32:46.171Z,7.00
2023-05-23T04:35:14.730Z,6.63
2023-05-23T04:37:45.628Z,6.30
2023-05-23T04:40:14.646Z,7.00
2023-05-23T04:42:44.739Z,6.57
2023-05-23T04:45:13.139Z,6.77
2023-05-23T04:47:42.375Z,6.10
2023-05-23T04:50:11.589Z,6.77
2023-05-23T04:52:39.689Z,7.07
2023-05-23T04:55:09.961Z,6.37
2023-05-23T04:57:38.409Z,7.30
2023-05-23T05:00:10.653Z,7.33
2023-05-23T05:02:40.953Z,6.87
2023-05-23T05:05:09.759Z,6.93
2023-05-23T05:07:37.960Z,7.17
2023-05-23T05:10:06.858Z,6.40
2023-05-23T05:12:36.374Z,6.30
2023-05-23T05:15:05.490Z,7.00
2023-05-23T05:17:37.057Z,7.20
2023-05-23T05:20:08.559Z,7.27
2023-05-23T05:22:37.183Z,6.67
2023-05-23T05:25:07.317Z,7.37
2023-05-23T05:27:38.115Z,8.10
2023-05-23T05:30:08.267Z,7.00
2023-05-23T05:32:36.637Z,7.33
2023-05-23T05:35:05.337Z,7.47
2023-05-23T05:37:33.665Z,7.33
2023-05-23T05:40:06.695Z,7.30
2023-05-23T05:42:36.278Z,6.97
2023-05-23T05:45:04.609Z,7.20
2023-05-23T05:47:33.090Z,7.27
2023-05-23T05:50:01.763Z,6.67
2023-05-23T05:52:29.912Z,6.47
2023-05-23T05:54:58.037Z,6.30
2023-05-23T05:57:26.110Z,7.13
2023-05-23T05:59:55.664Z,6.63
2023-05-23T06:02:23.824Z,6.63
2023-05-23T06:04:52.006Z,6.33
2023-05-23T06:07:20.177Z,6.20
2023-05-23T06:09:48.261Z,6.47
2023-05-23T06:12:16.435Z,6.60
2023-05-23T06:14:44.560Z,6.07
2023-05-23T06:17:15.703Z,6.60
2023-05-23T06:19:44.994Z,6.23
2023-05-23T06:22:13.336Z,5.90
2023-05-23T06:24:41.785Z,5.87
2023-05-23T06:27:09.975Z,6.00
2023-05-23T06:29:38.066Z,6.27
2023-05-23T06:32:07.094Z,6.13
2023-05-23T06:34:36.800Z,6.07
2023-05-23T06:37:05.251Z,5.60
2023-05-23T06:39:33.454Z,6.40
2023-05-23T06:42:01.570Z,6.38
2023-05-23T06:44:29.742Z,6.67
2023-05-23T06:46:59.037Z,6.07
2023-05-23T06:49:27.397Z,6.47
2023-05-23T06:51:56.797Z,6.37
2023-05-23T06:54:24.950Z,6.80
2023-05-23T06:56:53.114Z,6.23
2023-05-23T06:59:21.338Z,6.70
2023-05-23T07:01:49.390Z,5.80
2023-05-23T07:04:17.489Z,6.80
2023-05-23T07:06:45.616Z,6.07
2023-05-23T07:09:15.532Z,6.60
2023-05-23T07:11:43.672Z,6.87
2023-05-23T07:14:11.706Z,6.10
2023-05-23T07:16:39.956Z,6.38
2023-05-23T07:19:08.169Z,6.60
2023-05-23T07:21:36.263Z,6.23
2023-05-23T07:24:04.607Z,6.83
2023-05-23T07:26:34.123Z,7.45
2023-05-23T07:29:02.254Z,6.65
2023-05-23T07:31:30.394Z,7.28
2023-05-23T07:33:58.851Z,6.65
2023-05-23T07:36:27.657Z,7.10
2023-05-23T07:38:56.452Z,5.97
2023-05-23T07:41:25.432Z,6.18
2023-05-23T07:43:54.946Z,6.40
2023-05-23T07:46:23.417Z,6.82
2023-05-23T07:48:51.679Z,6.50
2023-05-23T07:51:21.590Z,6.88
2023-05-23T07:53:49.761Z,6.40
2023-05-23T07:56:18.515Z,6.13
2023-05-23T07:58:46.679Z,6.20
2023-05-23T08:01:16.376Z,6.38
2023-05-23T08:03:44.468Z,5.57
2023-05-23T08:06:12.576Z,5.90
2023-05-23T08:08:41.243Z,5.95
2023-05-23T08:11:09.612Z,5.80
2023-05-23T08:13:43.506Z,5.63
2023-05-23T08:16:11.905Z,5.95
2023-05-23T08:18:42.353Z,5.57
2023-05-23T08:21:10.676Z,5.60
2023-05-23T08:23:38.729Z,5.60
2023-05-23T08:26:07.810Z,5.55
2023-05-23T08:28:35.939Z,5.68
2023-05-23T08:31:03.993Z,5.38
2023-05-23T08:33:32.253Z,5.82
2023-05-23T08:36:02.240Z,5.75
2023-05-23T08:38:30.480Z,5.70
2023-05-23T08:41:03.016Z,5.22
2023-05-23T08:43:31.349Z,5.72
2023-05-23T08:45:59.838Z,5.30
2023-05-23T08:48:29.393Z,6.18
2023-05-23T08:50:59.071Z,6.30
2023-05-23T08:53:30.302Z,5.68
2023-05-23T08:56:02.876Z,5.90
2023-05-23T08:58:32.096Z,6.35
2023-05-23T09:01:00.984Z,6.25
2023-05-23T09:03:29.839Z,5.45
2023-05-23T09:05:59.196Z,5.28
2023-05-23T09:08:28.802Z,5.20
2023-05-23T09:10:57.139Z,4.95
2023-05-23T09:13:26.338Z,5.32
2023-05-23T09:16:00.171Z,4.93
2023-05-23T09:18:28.607Z,4.93
2023-05-23T09:20:56.824Z,5.05
2023-05-23T09:23:25.306Z,4.72
2023-05-23T09:25:54.825Z,5.70
2023-05-23T09:28:23.829Z,4.82
2023-05-23T09:30:59.897Z,5.43
2023-05-23T09:33:38.201Z,4.38
2023-05-23T09:36:07.459Z,4.85
2023-05-23T09:38:39.824Z,4.70
2023-05-23T09:41:12.421Z,4.57
2023-05-23T09:43:43.256Z,5.07
2023-05-23T09:46:12.941Z,4.22
2023-05-23T09:48:41.123Z,4.78
2023-05-23T09:51:11.230Z,4.07
2023-05-23T09:53:39.427Z,3.92
2023-05-23T09:56:13.079Z,4.28
2023-05-23T09:58:44.377Z,3.97
2023-05-23T10:01:14.197Z,3.92
2023-05-23T10:03:56.073Z,4.07
2023-05-23T10:06:29.238Z,4.68
2023-05-23T10:09:00.962Z,3.97
2023-05-23T10:12:20.412Z,3.83
2023-05-23T10:14:54.606Z,3.95
2023-05-23T10:17:31.244Z,3.92
2023-05-23T10:20:08.687Z,3.95
2023-05-23T10:22:37.551Z,4.32
2023-05-23T10:25:07.356Z,4.38
2023-05-23T10:27:37.394Z,3.83
2023-05-23T10:30:06.761Z,4.50
2023-05-23T10:32:38.208Z,3.67
2023-05-23T10:35:14.146Z,3.92
2023-05-23T10:37:50.514Z,4.70
2023-05-23T10:40:24.527Z,4.13
2023-05-23T10:43:03.024Z,4.13
2023-05-23T10:45:31.619Z,4.18
2023-05-23T10:48:01.686Z,4.30
2023-05-23T10:50:34.635Z,4.60
2023-05-23T10:53:04.226Z,4.75
2023-05-23T10:55:37.472Z,4.40
2023-05-23T10:58:19.836Z,5.00
2023-05-23T11:00:55.569Z,5.90
2023-05-23T11:03:35.409Z,6.22
2023-05-23T11:06:05.060Z,6.60
2023-05-23T11:08:48.222Z,5.85
2023-05-23T11:11:17.239Z,5.95
2023-05-23T11:14:02.944Z,6.05
2023-05-23T11:16:32.829Z,5.90
2023-05-23T11:19:26.061Z,5.30
2023-05-23T11:21:57.336Z,5.65
2023-05-23T11:24:25.640Z,5.50
2023-05-23T11:26:55.190Z,5.88
2023-05-23T11:29:27.163Z,6.30
2023-05-23T11:31:55.606Z,6.70
2023-05-23T11:34:23.885Z,6.20
2023-05-23T11:36:55.958Z,7.13
2023-05-23T11:39:24.808Z,6.70
2023-05-23T11:42:01.046Z,6.35
2023-05-23T11:44:30.662Z,5.63
2023-05-23T11:47:03.326Z,5.78
2023-05-23T11:49:32.033Z,6.35
2023-05-23T11:52:00.588Z,5.63
2023-05-23T11:54:29.014Z,5.78
2023-05-23T11:56:57.621Z,5.85
2023-05-23T11:59:28.293Z,5.10
2023-05-23T12:01:57.860Z,5.13
2023-05-23T12:04:27.298Z,5.97
2023-05-23T12:06:56.069Z,5.28
2023-05-23T12:09:24.491Z,4.78
2023-05-23T12:11:52.678Z,4.45
2023-05-23T12:14:20.768Z,5.03
2023-05-23T12:16:48.896Z,5.10
2023-05-23T12:19:19.544Z,5.47
2023-05-23T12:21:49.992Z,5.00
2023-05-23T12:24:19.181Z,5.38
2023-05-23T12:26:55.352Z,4.90
2023-05-23T12:29:29.776Z,5.20
2023-05-23T12:32:00.499Z,5.10
2023-05-23T12:34:30.601Z,5.10
2023-05-23T12:37:14.902Z,5.63
2023-05-23T12:39:47.401Z,4.95
2023-05-23T12:42:15.850Z,4.57
2023-05-23T12:44:45.975Z,4.82
2023-05-23T12:47:15.045Z,4.75
2023-05-23T12:49:44.917Z,4.63
2023-05-23T12:52:13.132Z,4.85
2023-05-23T12:54:41.346Z,4.85
2023-05-23T12:57:09.440Z,4.75
2023-05-23T12:59:37.483Z,4.88
2023-05-23T13:02:05.765Z,5.22
2023-05-23T13:04:34.172Z,5.18
2023-05-23T13:07:03.670Z,5.80
2023-05-23T13:09:31.842Z,5.28
2023-05-23T13:12:00.820Z,5.53
2023-05-23T13:14:28.896Z,5.72
2023-05-23T13:16:57.255Z,5.70
2023-05-23T13:19:25.387Z,6.40
2023-05-23T13:21:53.503Z,5.30
2023-05-23T13:24:23.009Z,6.32
2023-05-23T13:26:51.255Z,5.10
2023-05-23T13:29:19.534Z,5.63
2023-05-23T13:31:47.766Z,5.90
2023-05-23T13:34:16.029Z,5.57
2023-05-23T13:36:44.141Z,4.97
2023-05-23T13:39:12.353Z,5.97
2023-05-23T13:41:41.871Z,5.38
2023-05-23T13:44:10.062Z,5.82
2023-05-23T13:46:38.128Z,5.93
2023-05-23T13:49:06.287Z,5.38
2023-05-23T13:51:34.742Z,5.75
2023-05-23T13:54:02.930Z,5.90
2023-05-23T13:56:31.318Z,6.25
2023-05-23T13:59:01.053Z,5.70
2023-05-23T14:01:29.521Z,5.93
2023-05-23T14:03:57.580Z,6.05
2023-05-23T14:06:25.689Z,6.28
2023-05-23T14:08:53.835Z,6.05
2023-05-23T14:11:21.949Z,5.65
2023-05-23T14:13:50.292Z,6.32
2023-05-23T14:16:20.082Z,5.47
2023-05-23T14:18:48.711Z,6.45
2023-05-23T14:21:17.193Z,6.55
2023-05-23T14:23:45.324Z,6.15
2023-05-23T14:26:13.420Z,6.00
2023-05-23T14:28:41.539Z,6.00
2023-05-23T14:31:09.622Z,7.05
2023-05-23T14:33:39.197Z,6.35
2023-05-23T14:36:08.676Z,5.95
2023-05-23T14:38:38.855Z,5.63
2023-05-23T14:41:07.187Z,5.82
2023-05-23T14:43:35.426Z,6.13
2023-05-23T14:46:03.595Z,5.70
2023-05-23T14:48:32.440Z,6.13
2023-05-23T14:51:02.582Z,6.93
2023-05-23T14:53:30.724Z,6.68
2023-05-23T14:55:59.160Z,6.35
2023-05-23T14:58:27.637Z,6.82
2023-05-23T15:00:56.031Z,6.07
2023-05-23T15:03:24.205Z,6.90
2023-05-23T15:05:52.305Z,6.78
2023-05-23T15:08:22.312Z,7.10
2023-05-23T15:10:50.408Z,7.07
2023-05-23T15:13:18.782Z,8.05
2023-05-23T15:15:49.129Z,7.82
2023-05-23T15:18:31.598Z,8.32
2023-05-23T15:21:04.256Z,8.35
2023-05-23T15:23:33.741Z,7.72
2023-05-23T15:26:01.922Z,8.13
2023-05-23T15:28:30.150Z,8.15
2023-05-23T15:30:59.153Z,7.70
2023-05-23T15:33:27.493Z,7.88
2023-05-23T15:35:57.833Z,8.65
2023-05-23T15:38:25.970Z,9.25
2023-05-23T15:40:56.634Z,9.35
2023-05-23T15:43:25.154Z,10.18
2023-05-23T15:45:53.691Z,9.07
2023-05-23T15:48:22.232Z,9.38
2023-05-23T15:50:50.394Z,9.75
2023-05-23T15:53:18.617Z,9.15
2023-05-23T15:55:46.788Z,9.43
2023-05-23T15:58:16.583Z,10.60
2023-05-23T16:00:44.672Z,10.30
2023-05-23T16:03:12.995Z,9.93
2023-05-23T16:05:41.377Z,9.95
2023-05-23T16:08:10.233Z,10.77
2023-05-23T16:10:38.411Z,11.93
2023-05-23T16:13:07.815Z,10.98
2023-05-23T16:15:37.669Z,11.15
2023-05-23T16:18:06.019Z,11.35
2023-05-23T16:20:35.078Z,10.48
2023-05-23T16:23:03.164Z,11.38
2023-05-23T16:25:31.312Z,9.90
2023-05-23T16:28:00.271Z,9.82
2023-05-23T16:30:28.323Z,9.20
2023-05-23T16:32:58.142Z,9.80
2023-05-23T16:35:26.319Z,8.52
2023-05-23T16:37:54.597Z,7.30
2023-05-23T16:40:22.737Z,5.80
2023-05-23T16:42:51.114Z,5.55
2023-05-23T16:45:19.254Z,4.60
2023-05-23T16:47:47.506Z,5.00
2023-05-23T16:50:17.343Z,4.77
2023-05-23T16:52:45.987Z,5.50
2023-05-23T16:55:14.185Z,5.33
2023-05-23T16:57:42.468Z,6.07
2023-05-23T17:00:11.852Z,5.20
2023-05-23T17:02:40.528Z,6.40
2023-05-23T17:05:09.486Z,6.37
2023-05-23T17:07:38.974Z,5.83
2023-05-23T17:10:08.272Z,5.83
2023-05-23T17:12:36.702Z,5.50
2023-05-23T17:15:07.127Z,5.60
2023-05-23T17:17:35.359Z,5.87
2023-05-23T17:20:04.566Z,6.13
2023-05-23T17:22:35.411Z,6.30
2023-05-23T17:25:06.519Z,5.30
2023-05-23T17:27:34.760Z,6.10
2023-05-23T17:30:05.252Z,5.30
2023-05-23T17:32:33.397Z,6.20
2023-05-23T17:35:01.670Z,6.97
2023-05-23T17:37:29.780Z,6.60
2023-05-23T17:39:58.096Z,7.80
2023-05-23T17:42:27.804Z,6.93
2023-05-23T17:44:56.015Z,7.10
2023-05-23T17:47:24.312Z,6.93
2023-05-23T17:49:52.409Z,7.13
2023-05-23T17:52:20.717Z,6.20
2023-05-23T17:54:49.206Z,6.93
2023-05-23T17:57:17.375Z,5.97
2023-05-23T17:59:46.951Z,5.00
2023-05-23T18:02:15.234Z,5.27
2023-05-23T18:04:43.494Z,5.07
2023-05-23T18:07:13.413Z,4.97
2023-05-23T18:09:42.664Z,5.70
2023-05-23T18:12:11.616Z,5.20
2023-05-23T18:14:40.077Z,4.80
2023-05-23T18:17:10.044Z,4.13
2023-05-23T18:19:38.320Z,3.77
2023-05-23T18:22:07.165Z,3.70
2023-05-23T18:24:36.370Z,3.77
2023-05-23T18:27:04.861Z,3.47
2023-05-23T18:29:33.218Z,3.90
2023-05-23T18:32:01.331Z,3.37
2023-05-23T18:34:30.755Z,3.33
2023-05-23T18:36:58.880Z,3.43
2023-05-23T18:39:27.593Z,3.70
2023-05-23T18:41:55.709Z,3.13
2023-05-23T18:44:23.996Z,2.77
2023-05-23T18:46:52.160Z,2.10
2023-05-23T18:49:20.282Z,2.50
2023-05-23T18:51:51.775Z,2.13
2023-05-23T18:54:19.889Z,1.83
2023-05-23T18:56:48.299Z,1.70
2023-05-23T18:59:17.299Z,2.40
2023-05-23T19:01:45.520Z,2.07
2023-05-23T19:04:13.721Z,2.27
2023-05-23T19:06:42.018Z,1.80
2023-05-23T19:09:11.728Z,1.80
2023-05-23T19:11:40.354Z,1.60
2023-05-23T19:14:08.696Z,1.70
2023-05-23T19:16:38.153Z,1.60
2023-05-23T19:19:06.363Z,1.70
2023-05-23T19:21:34.804Z,1.93
2023-05-23T19:24:07.430Z,1.60
2023-05-23T19:26:37.330Z,1.83
2023-05-23T19:29:06.337Z,2.17
2023-05-23T19:31:34.751Z,1.70
2023-05-23T19:34:02.958Z,2.03
2023-05-23T19:36:31.612Z,1.90
2023-05-23T19:38:59.635Z,1.90
2023-05-23T19:41:28.368Z,1.90
2023-05-23T19:43:57.842Z,2.27
2023-05-23T19:46:26.156Z,2.10
2023-05-23T19:48:55.836Z,1.70
2023-05-23T19:51:24.335Z,1.60
2023-05-23T19:53:54.641Z,1.67
2023-05-23T19:56:23.854Z,2.00
2023-05-23T19:58:52.082Z,1.80
2023-05-23T20:01:22.043Z,2.37
2023-05-23T20:03:50.568Z,1.93
2023-05-23T20:06:18.874Z,1.90
2023-05-23T20:08:48.122Z,2.17
2023-05-23T20:11:16.206Z,2.10
2023-05-23T20:13:44.295Z,2.60
2023-05-23T20:16:13.020Z,2.20
2023-05-23T20:18:43.888Z,2.80
2023-05-23T20:21:12.649Z,2.20
2023-05-23T20:23:43.438Z,2.47
2023-05-23T20:26:11.577Z,2.77
2023-05-23T20:28:39.677Z,2.60
2023-05-23T20:31:07.924Z,2.43
2023-05-23T20:33:35.993Z,2.20
2023-05-23T20:36:06.840Z,2.33
2023-05-23T20:38:35.024Z,2.07
2023-05-23T20:41:06.439Z,2.50
2023-05-23T20:43:37.143Z,2.30
2023-05-23T20:46:06.986Z,2.40
2023-05-23T20:48:35.202Z,2.50
2023-05-23T20:51:05.635Z,2.50
2023-05-23T20:53:35.606Z,2.60
2023-05-23T20:56:05.450Z,2.47
2023-05-23T20:58:33.835Z,2.90
2023-05-23T21:01:02.076Z,3.20
2023-05-23T21:03:30.279Z,3.03
2023-05-23T21:05:58.659Z,3.40
2023-05-23T21:08:26.832Z,3.00
2023-05-23T21:10:56.555Z,3.43
2023-05-23T21:13:24.716Z,4.00
2023-05-23T21:15:52.823Z,4.30
2023-05-23T21:18:22.493Z,4.17
2023-05-23T21:20:51.201Z,3.87
2023-05-23T21:23:19.739Z,3.77
2023-05-23T21:25:47.891Z,3.83
2023-05-23T21:28:19.032Z,4.93
2023-05-23T21:30:47.809Z,4.60
2023-05-23T21:33:16.013Z,3.80
2023-05-23T21:35:45.532Z,4.70
2023-05-23T21:38:13.762Z,4.17
2023-05-23T21:40:42.076Z,4.20
2023-05-23T21:43:10.313Z,4.90
2023-05-23T21:45:39.832Z,4.00
2023-05-23T21:48:08.009Z,4.13
2023-05-23T21:50:36.185Z,3.40
2023-05-23T21:53:04.321Z,4.13
2023-05-23T21:55:32.337Z,4.23
2023-05-23T21:58:00.508Z,3.60
2023-05-23T22:00:29.573Z,3.80
2023-05-23T22:02:59.084Z,3.70
2023-05-23T22:05:27.209Z,3.97
2023-05-23T22:07:55.382Z,3.73
2023-05-23T22:10:23.515Z,3.70
2023-05-23T22:12:52.371Z,3.90
2023-05-23T22:15:20.821Z,4.07
2023-05-23T22:17:49.029Z,3.67
2023-05-23T22:20:19.554Z,3.60
2023-05-23T22:22:47.850Z,3.80
2023-05-23T22:25:16.007Z,4.27
2023-05-23T22:27:44.368Z,3.50
2023-05-23T22:30:13.312Z,3.53
2023-05-23T22:32:41.660Z,3.30
2023-05-23T22:35:10.607Z,3.20
2023-05-23T22:37:40.092Z,3.23
2023-05-23T22:40:10.331Z,3.73
2023-05-23T22:42:39.961Z,3.50
2023-05-23T22:45:09.332Z,3.23
2023-05-23T22:47:37.566Z,3.27
2023-05-23T22:50:06.008Z,3.47
2023-05-23T22:52:34.649Z,3.07
2023-05-23T22:55:06.738Z,2.80
2023-05-23T22:57:36.072Z,3.27
2023-05-23T23:00:05.204Z,3.30
2023-05-23T23:02:34.536Z,3.40
2023-05-23T23:05:03.450Z,3.13
2023-05-23T23:07:32.040Z,3.43
2023-05-23T23:10:00.358Z,3.70
2023-05-23T23:12:29.948Z,3.83
2023-05-23T23:14:58.377Z,3.30
2023-05-23T23:17:26.512Z,4.43
2023-05-23T23:19:54.970Z,3.30
2023-05-23T23:22:23.110Z,3.30
2023-05-23T23:24:52.770Z,3.90
2023-05-23T23:27:22.677Z,4.00
2023-05-23T23:29:52.251Z,3.70
2023-05-23T23:32:20.372Z,3.83
2023-05-23T23:34:48.445Z,4.77
2023-05-23T23:37:16.863Z,3.87
2023-05-23T23:39:44.998Z,3.37
2023-05-23T23:42:13.282Z,3.43
2023-05-23T23:44:41.694Z,3.63
2023-05-23T23:47:11.798Z,3.70
2023-05-23T23:49:40.033Z,3.23
2023-05-23T23:52:08.908Z,3.40
2023-05-23T23:54:37.063Z,3.53
2023-05-23T23:57:06.664Z,3.70
2023-05-23T23:59:34.825Z,3.57
